Time;durP1;ratioP1;P1;durP2;ratioP2;P2;SDS_P1;SDS_P2;PMS_P1;PMS_P2;Temp;Humidity;BMP_temperature;BMP_pressure;BME280_temperature;BME280_humidity;BME280_pressure;Samples;Min_cycle;Max_cycle;Signal;HPM_P1;HPM_P2
2022/04/20 00:01:00;;;;;;;3.70;2.80;;;;;;;9.44;68.65;100496.34;6281120;22;20003;-73
2022/04/20 00:03:26;;;;;;;5.95;2.67;;;;;;;9.39;68.86;100497.13;6258447;22;20034;-72
2022/04/20 00:05:52;;;;;;;4.95;3.15;;;;;;;9.44;68.89;100501.81;6284865;22;20007;-73
2022/04/20 00:08:17;;;;;;;3.65;2.78;;;;;;;9.43;68.26;100500.13;6285688;22;20007;-71
2022/04/20 00:10:43;;;;;;;3.13;2.30;;;;;;;9.44;68.98;100496.34;6288276;22;20083;-73
2022/04/20 00:13:09;;;;;;;6.43;3.33;;;;;;;9.40;69.17;100495.19;6259147;22;20110;-73
2022/04/20 00:15:35;;;;;;;7.47;2.72;;;;;;;9.37;68.79;100485.59;6315531;22;20007;-73
2022/04/20 00:18:00;;;;;;;3.13;2.58;;;;;;;9.41;68.80;100491.41;6287300;22;20063;-71
2022/04/20 00:20:26;;;;;;;8.18;3.10;;;;;;;9.45;68.48;100492.53;6287299;22;20030;-72
2022/04/20 00:22:51;;;;;;;4.35;3.22;;;;;;;9.46;68.69;100496.91;6287040;22;20007;-73
2022/04/20 00:25:17;;;;;;;5.22;3.28;;;;;;;9.38;68.82;100483.72;6289066;22;20035;-72
2022/04/20 00:27:42;;;;;;;4.53;2.58;;;;;;;9.41;68.89;100494.13;6325175;22;20079;-72
2022/04/20 00:30:09;;;;;;;6.50;3.30;;;;;;;9.41;68.90;100494.13;6296749;22;20031;-74
2022/04/20 00:32:35;;;;;;;3.33;2.85;;;;;;;9.37;69.07;100484.81;6313698;22;20003;-73
2022/04/20 00:35:00;;;;;;;6.78;2.88;;;;;;;9.37;68.76;100490.25;6260487;22;20003;-73
2022/04/20 00:37:26;;;;;;;4.68;2.97;;;;;;;9.35;68.81;100486.97;6284477;22;20015;-72
2022/04/20 00:39:52;;;;;;;6.32;3.28;;;;;;;9.42;68.52;100493.06;6310856;22;20004;-74
2022/04/20 00:42:19;;;;;;;8.02;3.53;;;;;;;9.40;68.79;100484.28;6314425;22;20010;-73
2022/04/20 00:44:45;;;;;;;4.43;2.83;;;;;;;9.35;68.95;100484.25;6284650;22;20025;-73
2022/04/20 00:47:10;;;;;;;5.68;3.47;;;;;;;9.33;69.07;100473.59;6314132;22;20360;-73
2022/04/20 00:49:37;;;;;;;5.05;3.45;;;;;;;9.25;68.56;100471.31;6286904;22;20477;-72
2022/04/20 00:52:04;;;;;;;5.43;3.60;;;;;;;9.24;69.11;100480.56;6287757;22;20026;-72
2022/04/20 00:54:30;;;;;;;4.22;3.42;;;;;;;9.19;69.28;100478.59;6283737;22;20011;-72
2022/04/20 00:56:55;;;;;;;4.10;3.15;;;;;;;9.14;69.51;100481.28;6311312;22;20007;-72
2022/04/20 00:59:27;;;;;;;5.47;3.47;;;;;;;9.14;69.83;100475.84;6284404;22;20007;-72
2022/04/20 01:01:54;;;;;;;9.30;4.28;;;;;;;9.13;69.54;100468.72;6282109;22;20304;-71
2022/04/20 01:04:19;;;;;;;6.10;3.30;;;;;;;9.10;69.42;100469.22;6310081;22;20015;-71
2022/04/20 01:06:45;;;;;;;7.88;3.53;;;;;;;9.11;69.63;100473.59;6312590;22;20452;-72
2022/04/20 01:09:11;;;;;;;7.97;3.13;;;;;;;9.08;69.85;100471.38;6307945;22;20007;-72
2022/04/20 01:11:37;;;;;;;6.47;3.03;;;;;;;9.11;69.82;100480.97;6313238;22;20074;-72
2022/04/20 01:14:02;;;;;;;5.68;3.47;;;;;;;9.08;70.37;100476.81;6311791;22;20097;-71
2022/04/20 01:16:27;;;;;;;6.03;3.55;;;;;;;9.05;70.67;100480.06;6312970;22;20006;-72
2022/04/20 01:18:53;;;;;;;5.35;3.25;;;;;;;9.00;69.88;100474.56;6282841;22;20011;-72
2022/04/20 01:21:19;;;;;;;4.75;3.22;;;;;;;8.99;69.91;100483.81;6283656;22;20095;-74
2022/04/20 01:23:44;;;;;;;5.93;3.47;;;;;;;8.95;71.14;100471.75;6285482;22;20008;-73
2022/04/20 01:26:11;;;;;;;10.25;3.03;;;;;;;8.95;70.45;100479.94;6283247;22;20011;-72
2022/04/20 01:28:38;;;;;;;10.68;3.97;;;;;;;8.91;70.84;100477.72;6312320;22;20050;-74
2022/04/20 01:31:26;;;;;;;6.50;3.72;;;;;;;8.86;71.14;100477.69;6309584;22;20007;-72
2022/04/20 01:33:52;;;;;;;6.63;3.38;;;;;;;8.82;71.62;100479.25;6278307;22;20026;-70
2022/04/20 01:36:17;;;;;;;5.57;3.25;;;;;;;8.79;71.91;100466.13;6304006;22;20034;-70
2022/04/20 01:38:52;;;;;;;4.80;3.47;;;;;;;8.71;71.82;100459.19;6280590;22;20468;-72
2022/04/20 01:41:17;;;;;;;10.68;3.85;;;;;;;8.71;71.26;100461.13;6284309;22;19999;-76
2022/04/20 01:43:43;;;;;;;6.68;3.53;;;;;;;8.77;71.31;100481.91;6282754;22;20448;-72
2022/04/20 01:46:08;;;;;;;8.32;4.18;;;;;;;8.74;71.57;100479.69;6293475;22;20037;-72
2022/04/20 01:48:34;;;;;;;5.40;3.50;;;;;;;8.72;71.92;100473.69;6302018;22;19996;-72
2022/04/20 01:53:43;;;;;;;9.13;4.70;;;;;;;8.58;72.19;100472.38;6302718;22;20027;-72
2022/04/20 01:56:08;;;;;;;9.00;4.35;;;;;;;8.53;73.04;100481.31;6323527;22;20216;-72
2022/04/20 01:58:37;;;;;;;10.07;4.88;;;;;;;8.49;72.79;100480.97;6274737;22;20034;-72
2022/04/20 02:02:34;;;;;;;7.53;4.30;;;;;;;8.35;72.58;100469.59;6317024;22;20003;-72
2022/04/20 02:03:48;;;;;;;7.82;4.15;;;;;;;8.25;73.34;100468.59;6318531;22;20026;-72
2022/04/20 02:06:14;;;;;;;6.80;4.15;;;;;;;8.25;73.39;100474.03;6263537;22;20011;-72
2022/04/20 02:08:40;;;;;;;7.55;4.32;;;;;;;8.16;73.95;100466.31;6312884;22;20007;-73
2022/04/20 02:11:06;;;;;;;8.98;5.18;;;;;;;8.08;74.32;100469.44;6313124;22;20006;-73
2022/04/20 02:13:31;;;;;;;9.50;5.00;;;;;;;7.98;74.41;100463.84;6310617;22;20078;-72
2022/04/20 02:15:56;;;;;;;8.27;5.15;;;;;;;7.88;74.73;100458.22;6284335;22;20007;-72
2022/04/20 02:18:22;;;;;;;7.93;5.10;;;;;;;7.75;75.09;100453.94;6259909;22;20015;-72
2022/04/20 02:20:47;;;;;;;10.43;5.30;;;;;;;7.70;76.29;100451.94;6260594;22;20071;-72
2022/04/20 02:23:13;;;;;;;8.25;5.30;;;;;;;7.68;75.51;100444.03;6257912;22;20056;-72
2022/04/20 02:25:38;;;;;;;10.30;5.15;;;;;;;7.56;75.99;100445.16;6261113;22;20006;-72
2022/04/20 02:28:03;;;;;;;8.23;4.72;;;;;;;7.53;76.73;100445.66;6234429;22;20026;-73
2022/04/20 02:30:29;;;;;;;8.52;5.00;;;;;;;7.50;77.05;100447.81;6284608;22;20006;-71
2022/04/20 02:32:54;;;;;;;8.65;6.05;;;;;;;7.38;76.92;100444.31;6283361;22;20414;-71
2022/04/20 02:35:20;;;;;;;8.18;5.82;;;;;;;7.25;77.95;100450.06;6313996;22;20003;-71
2022/04/20 02:37:45;;;;;;;11.57;5.88;;;;;;;7.11;77.76;100438.63;6254284;22;20007;-72
2022/04/20 02:40:11;;;;;;;8.93;5.95;;;;;;;7.07;77.97;100445.66;6284914;22;20011;-71
2022/04/20 02:42:37;;;;;;;8.63;5.57;;;;;;;6.97;79.07;100438.09;6310772;22;20015;-73
2022/04/20 02:45:02;;;;;;;11.73;5.03;;;;;;;6.90;79.21;100442.84;6284733;22;20149;-73
2022/04/20 02:47:29;;;;;;;8.23;5.55;;;;;;;6.89;79.72;100446.63;6314573;22;20003;-72
2022/04/20 02:49:54;;;;;;;9.95;6.35;;;;;;;6.89;79.37;100449.34;6268700;22;20084;-72
2022/04/20 02:52:22;;;;;;;11.10;5.72;;;;;;;6.84;79.49;100451.97;6292368;22;20015;-72
2022/04/20 02:54:47;;;;;;;9.63;6.55;;;;;;;6.79;80.11;100455.38;6321039;22;20007;-72
2022/04/20 02:57:12;;;;;;;9.68;6.55;;;;;;;6.74;80.14;100453.41;6285667;22;20149;-71
2022/04/20 02:59:38;;;;;;;9.07;6.20;;;;;;;6.64;79.82;100442.31;6260910;22;20003;-72
2022/04/20 03:02:04;;;;;;;10.65;6.03;;;;;;;6.67;80.06;100449.97;6312318;22;20030;-71
2022/04/20 03:04:29;;;;;;;9.65;5.97;;;;;;;6.62;80.63;100452.59;6282216;22;20015;-71
2022/04/20 03:06:55;;;;;;;20.48;6.53;;;;;;;6.56;80.69;100442.69;6280347;22;20424;-69
2022/04/20 03:09:20;;;;;;;10.65;6.85;;;;;;;6.44;80.83;100448.97;6256967;22;20007;-71
2022/04/20 03:11:46;;;;;;;12.38;7.13;;;;;;;6.34;80.93;100448.75;6309965;22;19996;-70
2022/04/20 03:14:11;;;;;;;12.93;6.68;;;;;;;6.23;81.77;100444.13;6283615;22;20513;-70
2022/04/20 03:16:38;;;;;;;12.45;7.25;;;;;;;6.19;81.79;100445.66;6258957;22;20011;-71
2022/04/20 03:19:06;;;;;;;10.43;6.43;;;;;;;6.04;82.23;100430.66;6285530;22;20023;-73
2022/04/20 03:21:31;;;;;;;12.77;7.28;;;;;;;5.97;82.45;100429.97;6312117;22;20023;-72
2022/04/20 03:23:56;;;;;;;14.00;6.15;;;;;;;6.09;82.13;100441.66;6286228;22;20015;-72
2022/04/20 03:26:22;;;;;;;12.10;6.47;;;;;;;6.07;82.89;100430.19;6313309;22;20025;-72
2022/04/20 03:28:47;;;;;;;10.32;6.38;;;;;;;6.06;82.32;100438.56;6313977;22;20011;-72
2022/04/20 03:31:13;;;;;;;13.35;6.35;;;;;;;6.14;82.94;100451.00;6262359;22;20004;-72
2022/04/20 03:33:38;;;;;;;14.18;6.85;;;;;;;6.12;83.16;100448.53;6315164;22;20014;-71
2022/04/20 03:36:06;;;;;;;19.38;7.53;;;;;;;6.14;83.50;100445.56;6312170;22;20433;-71
2022/04/20 03:38:31;;;;;;;13.30;8.15;;;;;;;6.10;83.16;100443.31;6286396;22;20007;-72
2022/04/20 03:40:57;;;;;;;17.80;7.03;;;;;;;6.08;83.41;100440.00;6259582;22;20016;-71
2022/04/20 03:43:23;;;;;;;13.02;7.25;;;;;;;6.11;83.66;100446.84;6286210;22;20003;-71
2022/04/20 03:45:49;;;;;;;10.55;6.75;;;;;;;6.09;82.93;100436.25;6312760;22;20078;-71
2022/04/20 03:48:14;;;;;;;13.93;6.57;;;;;;;6.07;83.33;100442.97;6285665;22;20003;-72
2022/04/20 03:50:40;;;;;;;12.20;6.88;;;;;;;6.06;83.04;100444.84;6287323;22;20014;-71
2022/04/20 03:53:05;;;;;;;14.35;7.90;;;;;;;6.01;82.84;100436.56;6276718;22;20023;-70
2022/04/20 03:55:31;;;;;;;11.95;6.72;;;;;;;6.04;83.38;100443.44;6271528;22;20414;-70
2022/04/20 03:57:56;;;;;;;11.43;6.80;;;;;;;6.04;83.46;100436.09;6220208;22;20011;-69
2022/04/20 04:00:23;;;;;;;13.30;7.60;;;;;;;6.13;83.20;100427.63;6219618;22;20211;-71
2022/04/20 04:02:49;;;;;;;11.73;7.07;;;;;;;6.12;82.93;100432.22;6247003;22;20012;-69
2022/04/20 04:05:15;;;;;;;10.43;6.70;;;;;;;6.13;82.85;100442.00;6219306;22;20004;-70
2022/04/20 04:07:41;;;;;;;15.32;5.95;;;;;;;6.10;82.62;100439.78;6273579;22;20014;-69
2022/04/20 04:10:07;;;;;;;8.77;5.95;;;;;;;6.02;83.11;100443.66;6245394;22;20008;-69
2022/04/20 04:12:33;;;;;;;13.40;7.38;;;;;;;5.94;83.29;100436.69;6197455;22;20494;-70
2022/04/20 04:14:59;;;;;;;11.02;6.75;;;;;;;5.97;83.17;100445.41;6273200;22;20031;-68
2022/04/20 04:17:24;;;;;;;13.48;8.23;;;;;;;5.95;83.27;100440.22;6223888;22;20015;-68
2022/04/20 04:19:57;;;;;;;14.77;7.72;;;;;;;5.88;83.19;100436.78;6225639;22;20361;-70
2022/04/20 04:22:22;;;;;;;12.98;7.68;;;;;;;5.95;83.37;100443.75;6246863;22;20007;-68
2022/04/20 04:24:49;;;;;;;13.82;7.60;;;;;;;5.93;83.45;100439.63;6275077;22;20010;-69
2022/04/20 04:27:15;;;;;;;11.00;7.15;;;;;;;5.89;83.76;100441.97;6277338;22;20054;-69
2022/04/20 04:29:40;;;;;;;10.55;6.30;;;;;;;5.84;84.34;100451.88;6276722;22;20007;-69
2022/04/20 04:32:06;;;;;;;12.77;7.22;;;;;;;5.76;84.32;100445.72;6245527;22;20008;-70
2022/04/20 04:34:32;;;;;;;10.25;7.03;;;;;;;5.70;84.57;100440.41;6275357;22;20495;-69
2022/04/20 04:36:58;;;;;;;8.50;6.28;;;;;;;5.62;84.55;100449.69;6273745;22;20016;-69
2022/04/20 04:39:24;;;;;;;13.77;7.15;;;;;;;5.63;84.74;100451.38;6274004;22;20015;-69
2022/04/20 04:41:52;;;;;;;11.98;6.47;;;;;;;5.57;84.52;100463.16;6272151;22;20057;-69
2022/04/20 04:44:18;;;;;;;12.10;7.60;;;;;;;5.58;85.27;100462.91;6221810;22;20069;-69
2022/04/20 04:49:29;;;;;;;11.75;7.32;;;;;;;5.52;85.44;100466.56;6276196;22;20098;-70
2022/04/20 04:51:58;;;;;;;10.95;7.22;;;;;;;5.44;85.54;100468.78;6251020;22;20454;-70
2022/04/20 04:54:24;;;;;;;12.38;7.65;;;;;;;5.46;85.27;100470.22;6248847;22;20016;-70
2022/04/20 04:56:50;;;;;;;11.45;6.32;;;;;;;5.41;85.33;100465.44;6249906;22;20449;-70
2022/04/20 04:59:16;;;;;;;14.55;7.60;;;;;;;5.49;85.43;100477.88;6224697;22;20007;-70
2022/04/20 05:01:42;;;;;;;12.52;7.80;;;;;;;5.48;85.33;100473.50;6246480;22;20007;-70
2022/04/20 05:04:07;;;;;;;11.88;7.32;;;;;;;5.55;86.15;100481.56;6249107;22;20086;-70
2022/04/20 05:06:32;;;;;;;10.43;7.20;;;;;;;5.60;85.80;100478.97;6276778;22;20026;-70
2022/04/20 05:08:58;;;;;;;12.93;8.32;;;;;;;5.62;85.76;100479.53;6247799;22;20075;-70
2022/04/20 05:11:23;;;;;;;15.98;8.55;;;;;;;5.63;85.68;100483.91;6248156;22;20010;-70
2022/04/20 05:13:49;;;;;;;17.13;9.55;;;;;;;5.76;86.11;100486.44;6247656;22;20090;-72
2022/04/20 05:16:14;;;;;;;13.55;8.23;;;;;;;5.84;84.91;100484.44;6279434;22;20011;-72
2022/04/20 05:18:40;;;;;;;14.13;7.78;;;;;;;5.89;85.51;100487.28;6255402;22;20011;-72
2022/04/20 05:21:05;;;;;;;15.93;8.32;;;;;;;5.89;85.30;100482.69;6284127;22;20030;-71
2022/04/20 05:23:31;;;;;;;15.93;7.88;;;;;;;5.99;85.43;100493.00;6228179;22;20015;-73
2022/04/20 05:25:57;;;;;;;16.92;8.77;;;;;;;6.08;84.81;100488.88;6280816;22;20133;-72
2022/04/20 05:28:22;;;;;;;20.08;9.18;;;;;;;6.14;84.72;100484.41;6231413;22;20042;-71
2022/04/20 05:30:48;;;;;;;17.35;9.27;;;;;;;6.17;84.66;100472.25;6281456;22;20053;-73
2022/04/20 05:33:14;;;;;;;16.50;8.73;;;;;;;6.28;84.91;100468.72;6230907;22;20018;-72
2022/04/20 05:35:39;;;;;;;12.63;9.07;;;;;;;6.34;84.04;100481.34;6279273;22;20011;-72
2022/04/20 05:43:41;;;;;;;19.42;10.02;;;;;;;6.58;82.69;100473.16;6281515;22;20014;-72
2022/04/20 05:46:07;;;;;;;16.98;9.35;;;;;;;6.56;83.04;100467.16;6248319;22;20000;-73
2022/04/20 05:48:33;;;;;;;16.88;8.77;;;;;;;6.63;83.25;100476.81;6279193;22;20024;-72
2022/04/20 05:50:58;;;;;;;16.52;9.32;;;;;;;6.77;82.29;100477.38;6254132;22;20005;-72
2022/04/20 05:53:24;;;;;;;18.98;9.55;;;;;;;6.87;81.99;100476.78;6255075;22;20030;-73
2022/04/20 05:55:49;;;;;;;15.18;9.57;;;;;;;6.94;81.97;100482.91;6282819;22;20083;-72
2022/04/20 05:58:15;;;;;;;17.60;9.85;;;;;;;7.08;81.27;100479.91;6255856;22;20674;-72
2022/04/20 06:00:40;;;;;;;17.33;9.75;;;;;;;7.15;80.83;100489.59;6282860;22;20373;-74
2022/04/20 06:03:07;;;;;;;17.92;10.38;;;;;;;7.24;81.46;100486.47;6254080;22;20003;-72
2022/04/20 06:05:32;;;;;;;14.27;8.98;;;;;;;7.41;80.42;100483.81;6254545;22;20007;-72
2022/04/20 06:07:58;;;;;;;15.98;8.88;;;;;;;7.58;80.06;100486.56;6282624;22;20011;-73
2022/04/20 06:10:23;;;;;;;16.08;9.25;;;;;;;7.61;80.03;100483.38;6252753;22;20014;-71
2022/04/20 06:12:49;;;;;;;16.30;10.32;;;;;;;7.70;80.06;100481.88;6229450;22;20099;-71
2022/04/20 06:15:15;;;;;;;15.18;9.68;;;;;;;7.78;79.35;100465.16;6281564;22;20010;-71
2022/04/20 06:17:40;;;;;;;21.65;11.13;;;;;;;7.96;79.08;100476.88;6230720;22;20020;-73
2022/04/20 06:20:06;;;;;;;17.83;10.95;;;;;;;7.93;79.27;100470.03;6281739;22;20077;-73
2022/04/20 06:22:32;;;;;;;24.02;11.13;;;;;;;8.10;78.56;100478.19;6281297;22;20448;-74
2022/04/20 06:24:57;;;;;;;22.95;10.50;;;;;;;8.24;78.19;100469.69;6255940;22;20007;-73
2022/04/20 06:27:30;;;;;;;18.13;10.43;;;;;;;8.30;77.57;100476.88;6255452;22;20015;-72
2022/04/20 06:29:56;;;;;;;18.60;10.95;;;;;;;8.37;77.92;100477.53;6281903;22;20030;-73
2022/04/20 06:32:23;;;;;;;22.40;11.85;;;;;;;8.42;77.04;100480.31;6281809;22;20086;-72
2022/04/20 06:34:54;;;;;;;19.88;12.00;;;;;;;8.46;76.75;100480.66;6257059;22;20011;-74
2022/04/20 06:37:24;;;;;;;22.52;11.88;;;;;;;8.54;76.72;100472.88;6231537;22;20008;-75
2022/04/20 06:39:49;;;;;;;21.10;11.38;;;;;;;8.63;75.83;100477.88;6283618;22;20075;-70
2022/04/20 06:42:15;;;;;;;17.90;11.63;;;;;;;8.65;76.15;100475.75;6279745;22;20058;-74
2022/04/20 06:44:44;;;;;;;18.92;10.65;;;;;;;8.71;76.01;100475.56;6256413;22;20007;-74
2022/04/20 06:47:10;;;;;;;18.20;11.57;;;;;;;8.79;76.17;100477.03;6229264;22;20012;-70
2022/04/20 06:49:42;;;;;;;22.92;13.00;;;;;;;8.73;75.75;100458.94;6253650;22;20380;-73
2022/04/20 07:00:22;;;;;;;22.03;12.23;;;;;;;9.02;74.92;100466.94;6280967;22;20014;-74
2022/04/20 07:03:07;;;;;;;;;;;;;;;;;;;;;
2022/04/20 07:05:33;;;;;;;21.45;12.27;;;;;;;9.05;75.27;100491.81;6285630;22;20082;-73
2022/04/20 07:08:03;;;;;;;23.55;13.70;;;;;;;9.06;75.35;100479.00;6256598;22;20012;-73
2022/04/20 07:10:29;;;;;;;22.25;13.10;;;;;;;9.08;74.94;100476.81;6257188;22;20101;-75
2022/04/20 07:12:54;;;;;;;21.58;13.63;;;;;;;9.12;74.67;100486.16;6282556;22;19999;-75
2022/04/20 07:15:32;;;;;;;24.95;15.00;;;;;;;9.15;74.53;100471.19;6230663;22;20004;-73
2022/04/20 07:17:58;;;;;;;23.85;13.77;;;;;;;9.33;73.88;100487.22;6282712;22;20000;-74
2022/04/20 07:20:23;;;;;;;25.90;14.10;;;;;;;9.54;74.53;100490.97;6252522;22;20022;-73
2022/04/20 07:22:50;;;;;;;32.13;15.63;;;;;;;9.88;73.61;100496.22;6281897;22;20003;-74
2022/04/20 07:25:16;;;;;;;26.17;14.60;;;;;;;10.16;72.20;100497.00;6280165;22;20003;-74
2022/04/20 07:27:42;;;;;;;27.42;15.07;;;;;;;10.42;71.12;100497.22;6284238;22;20490;-73
2022/04/20 07:30:08;;;;;;;22.60;13.68;;;;;;;10.56;70.45;100503.88;6283475;22;20015;-75
2022/04/20 07:32:34;;;;;;;29.17;14.63;;;;;;;10.59;69.95;100506.06;6282704;22;20008;-74
2022/04/20 07:34:59;;;;;;;25.30;13.50;;;;;;;10.73;69.67;100505.59;6257723;22;20131;-73
2022/04/20 07:37:27;;;;;;;25.02;14.13;;;;;;;10.78;69.32;100503.72;6282471;22;20007;-73
2022/04/20 07:39:52;;;;;;;23.05;13.65;;;;;;;10.79;69.13;100499.06;6256953;22;20063;-73
2022/04/20 07:42:21;;;;;;;28.80;14.20;;;;;;;10.75;69.25;100496.06;6254571;22;20392;-73
2022/04/20 07:44:46;;;;;;;24.50;14.88;;;;;;;10.79;68.77;100496.31;6278424;22;19999;-73
2022/04/20 07:47:12;;;;;;;26.23;14.75;;;;;;;10.88;68.24;100497.50;6283787;22;20000;-72
2022/04/20 07:52:21;;;;;;;24.23;14.25;;;;;;;11.19;67.60;100497.63;6261009;22;20018;-74
2022/04/20 07:54:47;;;;;;;23.33;13.43;;;;;;;11.48;67.35;100510.84;6253898;22;20051;-74
2022/04/20 07:57:15;;;;;;;25.40;13.65;;;;;;;11.84;66.00;100505.41;6284811;22;20014;-74
2022/04/20 07:59:44;;;;;;;23.40;13.07;;;;;;;12.16;65.35;100504.38;6283740;22;19999;-74
2022/04/20 08:02:09;;;;;;;26.67;14.30;;;;;;;12.47;64.25;100496.09;6254377;22;20008;-75
2022/04/20 08:04:35;;;;;;;24.60;14.93;;;;;;;12.49;63.53;100494.72;6286641;22;20090;-74
2022/04/20 08:07:01;;;;;;;23.90;14.35;;;;;;;12.53;63.61;100497.75;6283843;22;20007;-73
2022/04/20 08:09:26;;;;;;;20.23;12.32;;;;;;;12.64;63.70;100506.78;6234985;22;20008;-74
2022/04/20 08:11:52;;;;;;;29.23;14.30;;;;;;;12.73;62.61;100491.38;6253559;22;20003;-73
2022/04/20 08:14:18;;;;;;;24.90;15.35;;;;;;;12.76;62.57;100501.78;6282000;22;20023;-74
2022/04/20 08:16:47;;;;;;;24.08;13.10;;;;;;;12.84;62.97;100503.97;6284007;22;20026;-74
2022/04/20 08:19:12;;;;;;;21.58;13.65;;;;;;;12.82;62.08;100506.19;6280843;22;20007;-73
2022/04/20 08:21:38;;;;;;;24.50;14.27;;;;;;;12.90;62.47;100508.34;6256739;22;20004;-73
2022/04/20 08:24:03;;;;;;;21.48;13.00;;;;;;;12.95;62.79;100504.75;6226273;22;20334;-72
2022/04/20 08:26:29;;;;;;;20.23;12.65;;;;;;;13.10;61.95;100496.47;6255787;22;20381;-73
2022/04/20 08:28:55;;;;;;;22.00;12.48;;;;;;;13.33;61.60;100499.66;6254450;22;20007;-73
2022/04/20 08:31:20;;;;;;;24.38;13.13;;;;;;;13.64;60.75;100495.94;6230753;22;20061;-74
2022/04/20 08:33:46;;;;;;;25.25;12.85;;;;;;;14.17;59.66;100495.28;6229649;22;20016;-74
2022/04/20 08:36:15;;;;;;;16.02;10.68;;;;;;;15.09;58.05;100494.31;6254479;22;20084;-74
2022/04/20 08:38:44;;;;;;;21.85;11.18;;;;;;;15.57;56.07;100501.69;6283419;22;20029;-74
2022/04/20 08:41:12;;;;;;;24.30;14.60;;;;;;;16.19;53.91;100504.34;6253998;22;19995;-74
2022/04/20 08:43:46;;;;;;;27.42;13.10;;;;;;;16.77;52.80;100484.78;6256541;22;20030;-74
2022/04/20 08:46:12;;;;;;;20.35;12.52;;;;;;;17.55;51.13;100505.00;6202379;22;20013;-73
2022/04/20 08:48:47;;;;;;;28.23;12.95;;;;;;;18.44;47.84;100490.69;6284130;22;20106;-74
2022/04/20 08:51:15;;;;;;;25.27;12.77;;;;;;;20.14;44.14;100496.78;6253686;22;20405;-73
2022/04/20 08:53:41;;;;;;;23.00;12.20;;;;;;;21.93;40.30;100499.66;6283155;22;20029;-74
2022/04/20 08:58:51;;;;;;;21.77;12.23;;;;;;;24.16;34.38;100489.34;6260741;22;20019;-74
2022/04/20 09:01:17;;;;;;;21.27;11.68;;;;;;;24.55;33.20;100484.78;6282815;22;20300;-74
2022/04/20 09:03:46;;;;;;;19.30;10.98;;;;;;;24.95;33.53;100488.59;6229862;22;20098;-74
2022/04/20 09:06:13;;;;;;;18.83;11.57;;;;;;;25.06;32.24;100480.47;6258247;22;20014;-74
2022/04/20 09:08:38;;;;;;;20.27;11.40;;;;;;;24.96;32.48;100479.03;6252733;22;20000;-73
2022/04/20 09:11:07;;;;;;;20.45;10.80;;;;;;;25.50;31.85;100479.50;6283956;22;20011;-75
2022/04/20 09:13:45;;;;;;;23.45;11.48;;;;;;;26.17;30.99;100468.06;6203001;22;20004;-75
2022/04/20 09:16:13;;;;;;;16.52;10.18;;;;;;;26.98;30.04;100475.50;6283438;22;20004;-75
2022/04/20 09:18:42;;;;;;;25.23;14.10;;;;;;;27.55;28.12;100473.91;6283004;22;20014;-74
2022/04/20 09:21:12;;;;;;;15.20;9.18;;;;;;;28.27;28.64;100464.34;6232224;22;20023;-75
2022/04/20 09:23:39;;;;;;;19.30;9.70;;;;;;;29.49;27.53;100472.13;6230100;22;20083;-75
2022/04/20 09:26:08;;;;;;;13.85;7.53;;;;;;;31.04;25.87;100484.56;6255944;22;20007;-75
2022/04/20 09:28:36;;;;;;;14.75;8.80;;;;;;;31.99;23.73;100471.75;6254199;22;20058;-72
2022/04/20 09:31:03;;;;;;;18.80;11.00;;;;;;;32.93;22.11;100476.75;6251398;22;20018;-71
2022/04/20 09:33:49;;;;;;;15.70;9.70;;;;;;;33.40;21.76;100474.28;6284423;22;20010;-72
2022/04/20 09:36:14;;;;;;;19.23;10.10;;;;;;;34.22;20.12;100475.25;6255402;22;20047;-73
2022/04/20 09:39:01;;;;;;;20.92;8.50;;;;;;;35.17;20.14;100472.50;6230600;22;20055;-71
2022/04/20 09:41:28;;;;;;;10.05;6.72;;;;;;;36.41;18.79;100468.69;6282980;22;19995;-72
2022/04/20 09:44:09;;;;;;;11.57;4.93;;;;;;;37.76;18.63;100470.41;6284471;22;20038;-72
2022/04/20 09:49:33;;;;;;;11.60;6.75;;;;;;;36.89;17.46;100463.41;6258339;22;20031;-74
2022/04/20 09:52:08;;;;;;;12.50;5.88;;;;;;;37.31;17.65;100461.50;6231577;22;20734;-75
2022/04/20 09:54:36;;;;;;;13.05;7.40;;;;;;;37.96;15.98;100451.03;6255463;22;20014;-73
2022/04/20 09:57:11;;;;;;;10.07;6.78;;;;;;;38.84;16.03;100449.81;6283377;22;20008;-73
2022/04/20 09:59:59;;;;;;;8.20;3.90;;;;;;;40.51;15.61;100454.53;6255031;22;20046;-74
2022/04/20 10:02:27;;;;;;;16.02;6.47;;;;;;;41.48;14.00;100438.78;6255762;22;20008;-74
2022/04/20 10:04:55;;;;;;;13.35;7.28;;;;;;;40.97;13.73;100428.78;6282415;22;20083;-72
2022/04/20 10:07:21;;;;;;;9.25;5.68;;;;;;;40.43;14.25;100430.28;6254734;22;20011;-74
2022/04/20 10:09:47;;;;;;;10.02;5.22;;;;;;;40.53;14.53;100434.78;6281479;22;20004;-73
2022/04/20 10:12:19;;;;;;;11.93;5.45;;;;;;;40.22;14.72;100437.72;6281901;22;20012;-74
2022/04/20 10:17:48;;;;;;;10.50;4.88;;;;;;;37.50;16.13;100438.94;6286093;22;20010;-76
2022/04/20 10:20:14;;;;;;;11.82;5.22;;;;;;;37.31;16.56;100420.75;6283657;22;20049;-73
2022/04/20 10:22:40;;;;;;;10.02;5.07;;;;;;;37.64;16.33;100424.25;6254815;22;20007;-72
2022/04/20 10:25:11;;;;;;;17.35;7.80;;;;;;;37.40;15.47;100418.06;6255041;22;20016;-73
2022/04/20 10:27:58;;;;;;;7.22;4.05;;;;;;;35.52;17.18;100421.09;6282632;22;20011;-73
2022/04/20 10:30:29;;;;;;;12.07;4.60;;;;;;;36.39;17.23;100414.25;6284257;22;20387;-74
2022/04/20 10:33:02;;;;;;;5.72;3.72;;;;;;;36.39;16.85;100428.47;6282179;22;20006;-74
2022/04/20 10:35:28;;;;;;;13.47;5.17;;;;;;;34.31;17.70;100411.53;6256154;22;20008;-74
2022/04/20 10:38:11;;;;;;;11.98;5.10;;;;;;;34.29;18.23;100414.78;6255824;22;20240;-74
2022/04/20 10:40:55;;;;;;;5.55;2.70;;;;;;;35.27;17.93;100417.47;6255385;22;20109;-73
2022/04/20 10:43:23;;;;;;;9.85;5.25;;;;;;;34.76;17.87;100403.41;6255515;22;20007;-73
2022/04/20 10:46:05;;;;;;;9.27;4.43;;;;;;;37.06;16.85;100410.06;6251309;22;20046;-73
2022/04/20 10:48:52;;;;;;;4.78;2.35;;;;;;;41.09;14.82;100411.91;6253839;22;20015;-75
2022/04/20 10:51:25;;;;;;;4.85;3.10;;;;;;;42.95;12.21;100414.75;6255178;22;20004;-74
2022/04/20 10:53:52;;;;;;;;;;;;;;;44.51;10.77;100414.25;6284028;22;20030;-74
2022/04/20 10:56:19;;;;;;;5.13;3.38;;;;;;;44.12;10.82;100414.50;6281566;22;19903;-73
2022/04/20 10:59:08;;;;;;;5.80;3.88;;;;;;;42.00;12.01;100397.84;6231751;22;20445;-73
2022/04/20 11:02:03;;;;;;;5.20;2.28;;;;;;;40.40;13.00;100385.41;6256562;22;20311;-74
2022/04/20 11:04:48;;;;;;;9.43;3.08;;;;;;;39.94;12.93;100388.91;6256037;22;20012;-74
2022/04/20 11:07:18;;;;;;;6.38;2.50;;;;;;;39.17;13.34;100372.31;6231017;22;20032;-75
2022/04/20 11:09:45;;;;;;;5.25;2.65;;;;;;;37.35;14.67;100381.56;6255153;22;20003;-74
2022/04/20 11:21:20;;;;;;;4.78;3.15;;;;;;;31.32;19.85;100361.44;6280380;22;20019;-73
2022/04/20 11:23:59;;;;;;;5.65;4.25;;;;;;;35.23;17.21;100361.97;6252134;22;20003;-75
2022/04/20 11:26:29;;;;;;;8.98;3.80;;;;;;;38.07;14.14;100363.00;6280474;22;20004;-72
2022/04/20 11:28:56;;;;;;;5.93;2.38;;;;;;;40.38;12.93;100365.03;6254480;22;20011;-74
2022/04/20 11:31:23;;;;;;;5.40;2.67;;;;;;;42.25;11.10;100352.69;6282370;22;20088;-74
2022/04/20 11:33:52;;;;;;;2.45;1.65;;;;;;;44.05;11.01;100380.34;6252781;22;20026;-73
2022/04/20 11:36:19;;;;;;;7.63;2.10;;;;;;;45.98;10.14;100366.66;6280526;22;20030;-73
2022/04/20 11:38:47;;;;;;;4.63;2.60;;;;;;;47.23;7.95;100369.22;6279182;22;20003;-73
2022/04/20 11:41:14;;;;;;;4.15;1.88;;;;;;;46.87;8.15;100355.22;6253092;22;20043;-74
2022/04/20 11:43:40;;;;;;;7.30;2.33;;;;;;;47.36;8.14;100358.72;6281613;22;20004;-72
2022/04/20 11:46:09;;;;;;;11.85;2.70;;;;;;;48.99;7.67;100370.34;6253772;22;20023;-73
2022/04/20 11:48:35;;;;;;;3.72;2.03;;;;;;;50.28;7.25;100363.88;6230318;22;20019;-73
2022/04/20 11:51:06;;;;;;;8.68;2.15;;;;;;;50.75;6.89;100354.78;6253603;22;20034;-73
2022/04/20 11:53:39;;;;;;;3.38;1.45;;;;;;;51.11;6.63;100351.63;6277910;22;20015;-75
2022/04/20 11:56:07;;;;;;;4.28;2.10;;;;;;;50.00;6.59;100350.44;6253904;22;19996;-73
2022/04/20 11:58:33;;;;;;;7.53;2.40;;;;;;;49.72;6.75;100339.91;6250774;22;20497;-74
2022/04/20 12:01:07;;;;;;;2.90;1.40;;;;;;;50.23;6.69;100336.41;6248309;22;20019;-73
2022/04/20 12:03:37;;;;;;;4.28;2.60;;;;;;;50.34;6.04;100344.25;6249796;22;20441;-72
2022/04/20 12:06:08;;;;;;;3.72;1.60;;;;;;;50.34;6.14;100335.53;6223071;22;20482;-72